createdAt,value
2023-02-02T00:01:54.363Z,10.28
2023-02-02T00:04:24.971Z,10.27
2023-02-02T00:06:54.215Z,10.24
2023-02-02T00:09:23.077Z,10.34
2023-02-02T00:11:53.040Z,10.47
2023-02-02T00:14:22.387Z,10.41
2023-02-02T00:16:51.871Z,10.48
2023-02-02T00:19:23.056Z,10.47
2023-02-02T00:21:51.617Z,10.29
2023-02-02T00:24:21.183Z,10.14
2023-02-02T00:26:53.159Z,9.79
2023-02-02T00:29:23.833Z,9.96
2023-02-02T00:31:53.344Z,10.01
2023-02-02T00:34:23.361Z,9.97
2023-02-02T00:36:52.465Z,9.65
2023-02-02T00:39:23.012Z,9.95
2023-02-02T00:41:53.071Z,9.96
2023-02-02T00:44:39.793Z,9.56
2023-02-02T00:47:08.354Z,9.13
2023-02-02T00:49:37.310Z,9.53
2023-02-02T00:52:06.291Z,9.51
2023-02-02T00:54:35.253Z,9.41
2023-02-02T00:57:06.074Z,9.76
2023-02-02T00:59:35.162Z,9.83
2023-02-02T01:02:03.763Z,9.80
2023-02-02T01:04:32.773Z,9.66
2023-02-02T01:07:01.341Z,9.62
2023-02-02T01:09:30.180Z,9.89
2023-02-02T01:11:58.861Z,9.94
2023-02-02T01:14:29.519Z,9.76
2023-02-02T01:16:58.077Z,9.79
2023-02-02T01:19:28.330Z,9.80
2023-02-02T01:21:56.777Z,9.60
2023-02-02T01:24:26.737Z,9.45
2023-02-02T01:26:55.275Z,9.22
2023-02-02T01:29:24.365Z,9.26
2023-02-02T01:31:54.321Z,9.35
2023-02-02T01:34:23.343Z,9.00
2023-02-02T01:36:51.820Z,9.03
2023-02-02T01:39:21.827Z,8.82
2023-02-02T01:41:50.348Z,9.17
2023-02-02T01:44:56.317Z,9.18
2023-02-02T01:47:29.884Z,9.16
2023-02-02T01:49:59.344Z,8.83
2023-02-02T01:52:31.303Z,9.17
2023-02-02T01:55:08.417Z,9.08
2023-02-02T01:57:41.163Z,8.71
2023-02-02T02:00:13.064Z,9.10
2023-02-02T02:02:49.605Z,9.29
2023-02-02T02:05:28.798Z,9.59
2023-02-02T02:08:05.857Z,9.44
2023-02-02T02:10:35.013Z,9.33
2023-02-02T02:13:05.710Z,9.53
2023-02-02T02:15:59.928Z,9.58
2023-02-02T02:18:41.705Z,9.74
2023-02-02T02:21:58.805Z,9.71
2023-02-02T02:25:13.301Z,9.88
2023-02-02T02:28:21.735Z,10.09
2023-02-02T02:31:14.762Z,9.87
2023-02-02T02:33:50.330Z,9.67
2023-02-02T02:36:26.926Z,9.75
2023-02-02T02:39:03.451Z,9.84
2023-02-02T02:41:36.425Z,9.83
2023-02-02T02:44:10.309Z,9.75
2023-02-02T02:46:40.197Z,9.47
2023-02-02T02:49:12.524Z,9.30
2023-02-02T02:51:47.016Z,9.49
2023-02-02T02:54:23.464Z,9.43
2023-02-02T02:57:04.974Z,9.61
2023-02-02T02:59:47.693Z,9.89
2023-02-02T03:02:35.115Z,9.61
2023-02-02T03:05:27.728Z,9.95
2023-02-02T03:08:07.129Z,10.04
2023-02-02T03:10:37.365Z,9.85
2023-02-02T03:13:10.236Z,10.16
2023-02-02T03:15:42.191Z,10.17
2023-02-02T03:18:11.206Z,10.29
2023-02-02T03:20:43.368Z,10.34
2023-02-02T03:23:11.998Z,10.18
2023-02-02T03:25:40.934Z,10.05
2023-02-02T03:28:10.150Z,9.96
2023-02-02T03:30:41.492Z,10.01
2023-02-02T03:33:11.389Z,10.22
2023-02-02T03:35:41.650Z,10.16
2023-02-02T03:38:10.492Z,10.15
2023-02-02T03:40:39.658Z,9.86
2023-02-02T03:43:08.253Z,9.90
2023-02-02T03:45:37.380Z,9.92
2023-02-02T03:48:06.942Z,10.06
2023-02-02T03:50:35.900Z,10.20
2023-02-02T03:53:06.145Z,10.31
2023-02-02T03:55:35.147Z,10.28
2023-02-02T03:58:03.704Z,10.29
2023-02-02T04:00:32.789Z,10.32
2023-02-02T04:03:01.689Z,10.29
2023-02-02T04:05:31.071Z,10.36
2023-02-02T04:07:59.637Z,10.42
2023-02-02T04:10:29.933Z,10.39
2023-02-02T04:12:58.911Z,10.12
2023-02-02T04:15:27.860Z,10.24
2023-02-02T04:17:56.438Z,10.18
2023-02-02T04:20:25.262Z,10.05
2023-02-02T04:22:55.477Z,10.13
2023-02-02T04:25:24.750Z,10.00
2023-02-02T04:27:54.980Z,10.08
2023-02-02T04:30:24.079Z,9.92
2023-02-02T04:32:53.121Z,10.02
2023-02-02T04:35:22.236Z,9.96
2023-02-02T04:37:51.031Z,10.00
2023-02-02T04:40:20.828Z,9.99
2023-02-02T04:42:49.373Z,10.00
2023-02-02T04:45:19.736Z,10.04
2023-02-02T04:47:48.282Z,10.05
2023-02-02T04:50:17.705Z,9.91
2023-02-02T04:52:46.330Z,10.05
2023-02-02T04:55:15.444Z,10.09
2023-02-02T04:57:44.683Z,10.00
2023-02-02T05:00:14.849Z,9.69
2023-02-02T05:02:45.286Z,9.91
2023-02-02T05:05:15.988Z,10.02
2023-02-02T05:07:44.609Z,9.86
2023-02-02T05:10:13.812Z,9.99
2023-02-02T05:12:42.311Z,10.13
2023-02-02T05:15:12.257Z,10.21
2023-02-02T05:17:40.819Z,10.26
2023-02-02T05:20:12.397Z,10.39
2023-02-02T05:22:41.694Z,10.44
2023-02-02T05:25:11.404Z,10.50
2023-02-02T05:27:39.907Z,10.40
2023-02-02T05:30:10.494Z,10.26
2023-02-02T05:32:38.992Z,10.38
2023-02-02T05:35:09.443Z,10.44
2023-02-02T05:37:39.449Z,10.55
2023-02-02T05:40:10.062Z,10.53
2023-02-02T05:42:38.642Z,10.39
2023-02-02T05:45:08.372Z,10.38
2023-02-02T05:47:36.833Z,10.17
2023-02-02T05:50:06.348Z,10.35
2023-02-02T05:52:36.788Z,10.09
2023-02-02T05:55:08.277Z,10.22
2023-02-02T05:57:37.038Z,10.46
2023-02-02T06:00:07.190Z,10.64
2023-02-02T06:02:40.679Z,10.78
2023-02-02T06:05:10.055Z,10.83
2023-02-02T06:07:38.648Z,10.98
2023-02-02T06:10:09.822Z,11.08
2023-02-02T06:12:38.322Z,11.12
2023-02-02T06:15:08.467Z,11.14
2023-02-02T06:17:37.038Z,11.12
2023-02-02T06:20:06.816Z,10.94
2023-02-02T06:22:35.450Z,11.14
2023-02-02T06:25:05.644Z,11.18
2023-02-02T06:27:35.792Z,11.34
2023-02-02T06:30:05.879Z,11.36
2023-02-02T06:32:34.465Z,11.45
2023-02-02T06:35:03.443Z,10.55
2023-02-02T06:37:31.991Z,10.91
2023-02-02T06:40:01.078Z,10.92
2023-02-02T06:42:30.739Z,10.98
2023-02-02T06:45:00.919Z,11.04
2023-02-02T06:47:29.546Z,11.17
2023-02-02T06:49:58.383Z,9.72
2023-02-02T06:52:26.934Z,8.63
2023-02-02T06:54:55.806Z,8.56
2023-02-02T06:57:24.617Z,8.62
2023-02-02T06:59:53.769Z,8.87
2023-02-02T07:02:23.977Z,9.25
2023-02-02T07:04:52.926Z,8.82
2023-02-02T07:07:21.576Z,8.50
2023-02-02T07:09:57.740Z,8.19
2023-02-02T07:12:27.985Z,8.16
2023-02-02T07:14:57.276Z,8.17
2023-02-02T07:17:27.265Z,8.29
2023-02-02T07:19:56.066Z,8.28
2023-02-02T07:22:24.822Z,8.11
2023-02-02T07:24:54.188Z,8.34
2023-02-02T07:27:22.704Z,8.57
2023-02-02T07:29:51.607Z,8.77
2023-02-02T07:32:20.168Z,9.01
2023-02-02T07:34:50.716Z,8.26
2023-02-02T07:37:19.224Z,8.07
2023-02-02T07:39:48.016Z,8.25
2023-02-02T07:42:16.567Z,7.84
2023-02-02T07:44:45.420Z,7.03
2023-02-02T07:47:13.946Z,7.03
2023-02-02T07:49:43.148Z,7.00
2023-02-02T07:52:13.056Z,6.88
2023-02-02T07:54:41.959Z,6.53
2023-02-02T07:57:10.874Z,6.91
2023-02-02T07:59:39.745Z,7.01
2023-02-02T08:02:10.042Z,6.33
2023-02-02T08:04:38.953Z,6.76
2023-02-02T08:07:07.497Z,6.88
2023-02-02T08:09:38.755Z,7.12
2023-02-02T08:12:07.275Z,6.19
2023-02-02T08:14:36.052Z,6.47
2023-02-02T08:17:04.732Z,6.82
2023-02-02T08:19:33.614Z,6.89
2023-02-02T08:22:02.168Z,6.53
2023-02-02T08:24:31.091Z,6.56
2023-02-02T08:27:01.118Z,6.49
2023-02-02T08:29:29.939Z,6.32
2023-02-02T08:31:58.879Z,6.06
2023-02-02T08:34:27.709Z,6.10
2023-02-02T08:36:56.795Z,5.70
2023-02-02T08:39:25.637Z,6.51
2023-02-02T08:41:56.089Z,6.04
2023-02-02T08:44:27.941Z,6.06
2023-02-02T08:47:15.445Z,5.63
2023-02-02T08:49:45.142Z,5.76
2023-02-02T08:52:13.898Z,5.94
2023-02-02T08:54:42.683Z,6.35
2023-02-02T08:57:11.214Z,6.89
2023-02-02T08:59:41.501Z,7.40
2023-02-02T09:02:10.965Z,7.70
2023-02-02T09:04:40.493Z,8.01
2023-02-02T09:07:08.960Z,8.26
2023-02-02T09:09:37.874Z,8.52
2023-02-02T09:12:06.708Z,8.65
2023-02-02T09:14:35.654Z,8.81
2023-02-02T09:17:05.517Z,8.89
2023-02-02T09:19:34.291Z,9.07
2023-02-02T09:22:02.758Z,9.21
2023-02-02T09:24:32.566Z,8.65
2023-02-02T09:27:01.605Z,8.78
2023-02-02T09:29:30.537Z,8.98
2023-02-02T09:31:59.253Z,9.15
2023-02-02T09:34:29.742Z,9.42
2023-02-02T09:36:58.413Z,9.42
2023-02-02T09:39:27.459Z,9.11
2023-02-02T09:42:05.819Z,8.35
2023-02-02T09:44:54.822Z,8.78
2023-02-02T09:47:26.855Z,9.09
2023-02-02T09:50:03.137Z,8.63
2023-02-02T09:52:37.309Z,9.04
2023-02-02T09:55:13.592Z,9.14
2023-02-02T09:57:47.024Z,9.44
2023-02-02T10:00:28.883Z,9.48
2023-02-02T10:03:03.924Z,9.44
2023-02-02T10:05:47.604Z,8.90
2023-02-02T10:08:34.373Z,9.03
2023-02-02T10:11:16.307Z,8.49
2023-02-02T10:13:47.639Z,8.67
2023-02-02T10:16:20.069Z,8.71
2023-02-02T10:18:54.800Z,8.76
2023-02-02T10:21:36.571Z,8.87
2023-02-02T10:24:05.514Z,9.14
2023-02-02T10:26:39.769Z,8.94
2023-02-02T10:29:16.814Z,8.93
2023-02-02T10:31:58.277Z,8.90
2023-02-02T10:34:32.802Z,9.11
2023-02-02T10:37:18.304Z,9.27
2023-02-02T10:40:05.215Z,9.17
2023-02-02T10:43:06.519Z,9.32
2023-02-02T10:45:35.943Z,9.53
2023-02-02T10:48:14.631Z,9.53
2023-02-02T10:50:46.729Z,9.48
2023-02-02T10:53:18.078Z,9.43
2023-02-02T10:55:54.839Z,9.31
2023-02-02T10:58:30.342Z,9.63
2023-02-02T11:01:01.423Z,9.84
2023-02-02T11:03:33.057Z,9.69
2023-02-02T11:06:21.606Z,9.89
2023-02-02T11:08:56.817Z,10.21
2023-02-02T11:11:32.614Z,10.29
2023-02-02T11:14:05.267Z,10.20
2023-02-02T11:16:43.090Z,9.96
2023-02-02T11:19:25.505Z,9.79
2023-02-02T11:21:56.949Z,10.20
2023-02-02T11:24:30.258Z,9.31
2023-02-02T11:27:02.025Z,9.69
2023-02-02T11:29:33.754Z,9.53
2023-02-02T11:32:27.872Z,9.26
2023-02-02T11:35:21.124Z,9.77
2023-02-02T11:37:58.889Z,9.57
2023-02-02T11:40:36.012Z,9.33
2023-02-02T11:43:14.960Z,9.34
2023-02-02T11:45:49.472Z,9.64
2023-02-02T11:48:20.238Z,9.69
2023-02-02T11:50:52.182Z,9.81
2023-02-02T11:53:25.970Z,9.91
2023-02-02T11:55:57.659Z,9.63
2023-02-02T11:58:28.615Z,9.85
2023-02-02T12:01:02.232Z,9.45
2023-02-02T12:03:35.424Z,9.70
2023-02-02T12:06:20.895Z,9.35
2023-02-02T12:08:50.626Z,9.64
2023-02-02T12:11:36.733Z,9.63
2023-02-02T12:14:20.874Z,9.90
2023-02-02T12:16:58.690Z,9.89
2023-02-02T12:19:48.543Z,9.96
2023-02-02T12:22:37.187Z,10.33
2023-02-02T12:25:25.360Z,10.36
2023-02-02T12:28:04.980Z,10.39
2023-02-02T12:30:41.167Z,10.06
2023-02-02T12:33:24.591Z,10.23
2023-02-02T12:36:24.781Z,9.11
2023-02-02T12:39:19.373Z,9.39
2023-02-02T12:42:10.425Z,9.29
2023-02-02T12:44:53.699Z,9.03
2023-02-02T12:47:28.683Z,9.34
2023-02-02T12:50:10.021Z,9.36
2023-02-02T12:53:04.633Z,9.68
2023-02-02T12:55:43.888Z,9.12
2023-02-02T12:58:21.104Z,9.09
2023-02-02T13:01:25.095Z,9.35
2023-02-02T13:04:07.972Z,9.86
2023-02-02T13:07:27.243Z,10.31
2023-02-02T13:10:12.923Z,10.43
2023-02-02T13:12:45.670Z,10.50
2023-02-02T13:15:21.349Z,10.30
2023-02-02T13:17:56.448Z,10.65
2023-02-02T13:20:36.365Z,10.56
2023-02-02T13:23:11.754Z,10.66
2023-02-02T13:25:46.357Z,10.08
2023-02-02T13:28:25.192Z,10.21
2023-02-02T13:30:54.924Z,10.51
2023-02-02T13:33:30.875Z,10.44
2023-02-02T13:36:04.511Z,10.19
2023-02-02T13:38:35.197Z,10.30
2023-02-02T13:41:09.899Z,9.91
2023-02-02T13:43:48.001Z,9.65
2023-02-02T13:46:27.107Z,10.25
2023-02-02T13:49:08.465Z,9.79
2023-02-02T13:51:51.080Z,10.04
2023-02-02T13:54:51.150Z,9.34
2023-02-02T13:57:35.436Z,9.69
2023-02-02T14:00:16.566Z,9.62
2023-02-02T14:02:49.300Z,9.28
2023-02-02T14:05:29.485Z,9.65
2023-02-02T14:08:06.725Z,9.80
2023-02-02T14:10:37.711Z,9.78
2023-02-02T14:13:31.701Z,10.11
2023-02-02T14:16:03.559Z,9.38
2023-02-02T14:18:57.567Z,9.13
2023-02-02T14:22:02.563Z,9.28
2023-02-02T14:24:45.188Z,9.56
2023-02-02T14:27:57.001Z,9.43
2023-02-02T14:30:38.600Z,9.59
2023-02-02T14:33:47.565Z,9.49
2023-02-02T14:36:18.086Z,9.60
2023-02-02T14:38:59.126Z,9.73
2023-02-02T14:42:06.902Z,9.31
2023-02-02T14:44:38.137Z,9.42
2023-02-02T14:47:51.060Z,9.08
2023-02-02T14:50:25.557Z,9.56
2023-02-02T14:53:01.017Z,9.45
2023-02-02T14:55:30.299Z,9.76
2023-02-02T14:58:03.678Z,9.60
2023-02-02T15:00:35.409Z,9.51
2023-02-02T15:03:35.938Z,9.55
2023-02-02T15:06:10.710Z,9.77
2023-02-02T15:08:39.199Z,10.09
2023-02-02T15:11:28.869Z,10.04
2023-02-02T15:14:11.521Z,9.66
2023-02-02T15:16:42.402Z,10.15
2023-02-02T15:19:29.718Z,9.91
2023-02-02T15:22:04.257Z,9.99
2023-02-02T15:24:36.785Z,9.60
2023-02-02T15:27:09.819Z,9.71
2023-02-02T15:29:43.861Z,10.08
2023-02-02T15:32:17.977Z,10.15
2023-02-02T15:34:50.089Z,10.18
2023-02-02T15:37:23.465Z,9.98
2023-02-02T15:39:56.331Z,9.50
2023-02-02T15:42:50.149Z,9.47
2023-02-02T15:45:43.701Z,9.65
2023-02-02T15:48:29.946Z,9.78
2023-02-02T15:51:04.228Z,9.51
2023-02-02T15:53:46.015Z,9.11
2023-02-02T15:56:29.337Z,9.18
2023-02-02T15:58:59.979Z,8.67
2023-02-02T16:01:34.001Z,9.22
2023-02-02T16:04:19.134Z,8.68
2023-02-02T16:06:50.071Z,8.63
2023-02-02T16:09:25.669Z,9.11
2023-02-02T16:11:55.004Z,9.20
2023-02-02T16:14:24.242Z,9.40
2023-02-02T16:16:54.108Z,8.88
2023-02-02T16:19:24.656Z,8.81
2023-02-02T16:21:55.788Z,9.14
2023-02-02T16:24:27.209Z,9.17
2023-02-02T16:26:58.861Z,9.28
2023-02-02T16:29:28.534Z,9.00
2023-02-02T16:31:58.872Z,9.03
2023-02-02T16:34:47.557Z,9.59
2023-02-02T16:37:18.844Z,9.50
2023-02-02T16:39:47.612Z,9.66
2023-02-02T16:42:26.015Z,9.43
2023-02-02T16:44:55.970Z,9.28
2023-02-02T16:47:40.101Z,9.38
2023-02-02T16:50:28.624Z,9.41
2023-02-02T16:53:02.244Z,9.16
2023-02-02T16:55:49.423Z,9.51
2023-02-02T16:58:21.886Z,9.21
2023-02-02T17:01:19.382Z,9.64
2023-02-02T17:03:56.105Z,8.65
2023-02-02T17:06:38.702Z,9.22
2023-02-02T17:09:26.662Z,9.29
2023-02-02T17:11:58.224Z,9.00
2023-02-02T17:14:34.428Z,9.12
2023-02-02T17:17:06.074Z,9.45
2023-02-02T17:19:36.030Z,9.28
2023-02-02T17:22:06.351Z,9.65
2023-02-02T17:24:35.277Z,9.51
2023-02-02T17:27:04.693Z,9.59
2023-02-02T17:29:35.321Z,9.73
2023-02-02T17:32:04.321Z,9.63
2023-02-02T17:34:32.809Z,9.51
2023-02-02T17:37:03.207Z,9.65
2023-02-02T17:39:31.761Z,9.69
2023-02-02T17:42:01.550Z,9.82
2023-02-02T17:44:30.032Z,9.02
2023-02-02T17:46:58.907Z,9.55
2023-02-02T17:49:27.589Z,9.67
2023-02-02T17:51:57.490Z,9.91
2023-02-02T17:54:27.398Z,9.56
2023-02-02T17:56:56.471Z,9.89
2023-02-02T17:59:25.281Z,10.08
2023-02-02T18:01:55.197Z,9.89
2023-02-02T18:04:24.777Z,9.75
2023-02-02T18:06:53.808Z,9.85
2023-02-02T18:09:22.296Z,9.50
2023-02-02T18:11:52.579Z,9.78
2023-02-02T18:14:21.130Z,9.79
2023-02-02T18:16:49.986Z,10.00
2023-02-02T18:19:18.711Z,9.86
2023-02-02T18:21:47.675Z,9.72
2023-02-02T18:24:16.290Z,9.89
2023-02-02T18:26:45.406Z,9.97
2023-02-02T18:29:15.489Z,10.04
2023-02-02T18:31:44.610Z,10.20
2023-02-02T18:34:16.540Z,10.32
2023-02-02T18:36:45.762Z,10.43
2023-02-02T18:39:14.440Z,10.34
2023-02-02T18:41:43.508Z,10.26
2023-02-02T18:44:11.986Z,10.29
2023-02-02T18:46:42.287Z,10.00
2023-02-02T18:49:11.477Z,10.19
2023-02-02T18:51:41.396Z,10.26
2023-02-02T18:54:11.827Z,10.37
2023-02-02T18:56:41.241Z,9.62
2023-02-02T18:59:10.270Z,9.72
2023-02-02T19:01:39.260Z,9.73
2023-02-02T19:04:09.797Z,9.78
2023-02-02T19:06:56.750Z,9.98
2023-02-02T19:09:25.397Z,9.90
2023-02-02T19:11:55.633Z,10.00
2023-02-02T19:14:28.709Z,9.79
2023-02-02T19:17:02.338Z,10.03
2023-02-02T19:19:34.774Z,10.07
2023-02-02T19:22:18.373Z,10.18
2023-02-02T19:24:47.891Z,10.14
2023-02-02T19:27:20.039Z,9.89
2023-02-02T19:29:51.222Z,9.79
2023-02-02T19:32:22.002Z,9.46
2023-02-02T19:34:54.250Z,9.78
2023-02-02T19:37:25.813Z,9.95
2023-02-02T19:39:56.744Z,9.66
2023-02-02T19:42:25.973Z,9.94
2023-02-02T19:44:54.869Z,9.45
2023-02-02T19:47:29.519Z,10.00
2023-02-02T19:50:00.786Z,10.15
2023-02-02T19:52:37.969Z,10.24
2023-02-02T19:55:19.575Z,9.52
2023-02-02T19:57:48.510Z,9.52
2023-02-02T20:00:21.651Z,9.44
2023-02-02T20:02:58.452Z,8.94
2023-02-02T20:05:33.914Z,8.28
2023-02-02T20:08:08.388Z,8.08
2023-02-02T20:10:40.207Z,7.97
2023-02-02T20:13:17.280Z,7.78
2023-02-02T20:15:48.868Z,7.63
2023-02-02T20:18:21.114Z,7.53
2023-02-02T20:20:54.139Z,7.36
2023-02-02T20:23:40.804Z,7.41
2023-02-02T20:26:23.301Z,7.37
2023-02-02T20:28:55.731Z,7.17
2023-02-02T20:31:28.687Z,7.06
2023-02-02T20:33:58.573Z,7.20
2023-02-02T20:36:38.707Z,7.17
2023-02-02T20:39:34.289Z,7.61
2023-02-02T20:42:04.244Z,7.96
2023-02-02T20:44:34.702Z,7.98
2023-02-02T20:47:04.036Z,8.12
2023-02-02T20:49:33.446Z,8.20
2023-02-02T20:52:08.051Z,8.07
2023-02-02T20:54:37.077Z,7.91
2023-02-02T20:57:06.650Z,7.98
2023-02-02T20:59:35.877Z,8.03
2023-02-02T21:02:05.430Z,7.98
2023-02-02T21:04:34.531Z,8.18
2023-02-02T21:07:04.498Z,7.73
2023-02-02T21:09:33.401Z,7.87
2023-02-02T21:12:02.194Z,8.36
2023-02-02T21:14:31.102Z,8.48
2023-02-02T21:17:12.863Z,7.70
2023-02-02T21:19:43.557Z,7.19
2023-02-02T21:22:14.946Z,7.64
2023-02-02T21:24:43.939Z,7.58
2023-02-02T21:27:12.847Z,7.69
2023-02-02T21:29:42.261Z,7.55
2023-02-02T21:32:11.504Z,7.68
2023-02-02T21:34:40.620Z,7.45
2023-02-02T21:37:15.769Z,7.59
2023-02-02T21:39:50.902Z,8.03
2023-02-02T21:42:22.390Z,8.26
2023-02-02T21:44:56.428Z,8.27
2023-02-02T21:47:29.812Z,7.43
2023-02-02T21:50:02.750Z,7.58
2023-02-02T21:52:34.870Z,7.19
2023-02-02T21:55:29.286Z,7.73
2023-02-02T21:57:59.910Z,7.54
2023-02-02T22:00:33.850Z,7.51
2023-02-02T22:03:02.598Z,7.31
2023-02-02T22:05:37.581Z,7.47
2023-02-02T22:08:21.769Z,7.27
2023-02-02T22:10:50.733Z,6.88
2023-02-02T22:13:21.510Z,6.52
2023-02-02T22:15:53.192Z,6.67
2023-02-02T22:18:23.923Z,6.50
2023-02-02T22:20:56.549Z,6.65
2023-02-02T22:23:29.028Z,6.85
2023-02-02T22:25:59.513Z,6.47
2023-02-02T22:28:30.849Z,6.56
2023-02-02T22:31:00.931Z,6.41
2023-02-02T22:33:30.052Z,6.66
2023-02-02T22:35:58.846Z,6.48
2023-02-02T22:38:28.993Z,6.49
2023-02-02T22:40:57.779Z,6.48
2023-02-02T22:43:26.296Z,6.24
2023-02-02T22:45:55.056Z,6.34
2023-02-02T22:48:23.577Z,6.41
2023-02-02T22:50:52.477Z,6.74
2023-02-02T22:53:21.033Z,6.75
2023-02-02T22:55:56.434Z,6.74
2023-02-02T22:58:25.958Z,6.42
2023-02-02T23:00:55.994Z,6.23
2023-02-02T23:03:24.647Z,6.33
2023-02-02T23:05:53.485Z,6.62
2023-02-02T23:08:22.149Z,6.69
2023-02-02T23:10:52.503Z,7.14
2023-02-02T23:13:21.384Z,7.35
2023-02-02T23:15:50.099Z,7.61
2023-02-02T23:18:18.593Z,7.17
2023-02-02T23:20:48.840Z,7.59
2023-02-02T23:23:17.450Z,7.89
2023-02-02T23:25:46.293Z,7.94
2023-02-02T23:28:16.881Z,8.20
2023-02-02T23:30:45.830Z,8.17
2023-02-02T23:33:14.454Z,7.84
2023-02-02T23:35:43.269Z,7.64
2023-02-02T23:38:11.847Z,7.89
2023-02-02T23:40:40.856Z,7.95
2023-02-02T23:43:09.520Z,7.09
2023-02-02T23:45:39.969Z,7.54
2023-02-02T23:48:09.878Z,6.68
2023-02-02T23:50:39.040Z,6.86
2023-02-02T23:53:08.855Z,7.03
2023-02-02T23:55:38.479Z,6.44
2023-02-02T23:58:07.175Z,6.75
